Time;durP1;ratioP1;P1;durP2;ratioP2;P2;SDS_P1;SDS_P2;PMS_P1;PMS_P2;Temp;Humidity;BMP_temperature;BMP_pressure;BME280_temperature;BME280_humidity;BME280_pressure;Samples;Min_cycle;Max_cycle;Signal;HPM_P1;HPM_P2
2023/02/03 00:00:51;;;;;;;14.05;7.75;;;;;;;;;;4991607;28;20033;-74
2023/02/03 00:03:17;;;;;;;13.90;6.97;;;;;;;;;;4993320;28;20027;-73
2023/02/03 00:05:43;;;;;;;14.77;7.63;;;;;;;;;;4992415;28;20023;-75
2023/02/03 00:08:09;;;;;;;24.27;8.68;;;;;;;;;;4992579;28;20018;-75
2023/02/03 00:10:36;;;;;;;12.55;7.35;;;;;;;;;;4993108;28;20022;-74
2023/02/03 00:13:02;;;;;;;14.38;6.30;;;;;;;;;;4993090;28;20421;-75
2023/02/03 00:15:29;;;;;;;19.38;7.50;;;;;;;;;;4991669;28;20027;-75
2023/02/03 00:17:55;;;;;;;17.38;7.00;;;;;;;;;;4992369;28;20045;-75
2023/02/03 00:20:21;;;;;;;13.25;6.95;;;;;;;;;;4993050;28;20111;-74
2023/02/03 00:22:47;;;;;;;15.65;6.72;;;;;;;;;;4992842;28;20488;-75
2023/02/03 00:25:13;;;;;;;15.88;6.47;;;;;;;;;;4992179;28;20102;-74
2023/02/03 00:27:38;;;;;;;16.15;6.38;;;;;;;;;;4992209;28;20028;-74
2023/02/03 00:30:05;;;;;;;14.57;5.95;;;;;;;;;;4992796;28;20042;-75
2023/02/03 00:32:37;;;;;;;13.85;5.68;;;;;;;;;;4993210;28;20507;-71
2023/02/03 00:35:03;;;;;;;16.27;5.68;;;;;;;;;;4992443;28;20030;-75
2023/02/03 00:37:29;;;;;;;18.85;5.22;;;;;;;;;;4991891;28;20058;-74
2023/02/03 00:39:55;;;;;;;12.43;5.35;;;;;;;;;;4992489;28;20516;-75
2023/02/03 00:42:21;;;;;;;17.10;5.43;;;;;;;;;;4991236;28;20053;-73
2023/02/03 00:44:47;;;;;;;16.27;5.53;;;;;;;;;;4992638;28;20042;-75
2023/02/03 00:47:13;;;;;;;14.20;4.97;;;;;;;;;;4991621;28;20101;-75
2023/02/03 00:49:39;;;;;;;15.38;4.95;;;;;;;;;;4992476;28;20049;-74
2023/02/03 00:52:05;;;;;;;10.38;4.82;;;;;;;;;;4992380;28;20481;-74
2023/02/03 00:54:31;;;;;;;19.10;5.30;;;;;;;;;;4991012;28;20027;-74
2023/02/03 00:56:57;;;;;;;15.40;5.32;;;;;;;;;;4992191;28;20504;-71
2023/02/03 00:59:23;;;;;;;19.08;5.35;;;;;;;;;;4991892;28;20065;-73
2023/02/03 01:01:49;;;;;;;12.10;4.43;;;;;;;;;;4992257;28;20072;-73
2023/02/03 01:04:15;;;;;;;16.95;4.72;;;;;;;;;;4992298;28;20022;-73
2023/02/03 01:06:41;;;;;;;19.33;7.07;;;;;;;;;;4991082;28;20030;-74
2023/02/03 01:09:07;;;;;;;30.08;8.35;;;;;;;;;;4991244;28;20560;-72
2023/02/03 01:11:33;;;;;;;20.98;6.30;;;;;;;;;;4992029;28;20034;-73
2023/02/03 01:14:00;;;;;;;18.80;6.07;;;;;;;;;;4992021;28;20034;-71
2023/02/03 01:16:27;;;;;;;24.52;6.45;;;;;;;;;;4992049;28;20567;-73
2023/02/03 01:18:54;;;;;;;18.55;5.90;;;;;;;;;;4989726;28;20030;-74
2023/02/03 01:21:23;;;;;;;14.80;4.60;;;;;;;;;;4991720;28;20468;-72
2023/02/03 01:23:49;;;;;;;15.25;4.78;;;;;;;;;;4991896;28;20030;-74
2023/02/03 01:26:16;;;;;;;18.13;5.68;;;;;;;;;;4991559;28;20874;-74
2023/02/03 01:28:42;;;;;;;14.88;6.45;;;;;;;;;;4990999;28;20018;-74
2023/02/03 01:31:15;;;;;;;16.38;6.53;;;;;;;;;;4991222;28;20129;-74
2023/02/03 01:33:45;;;;;;;15.07;5.13;;;;;;;;;;4991197;28;20066;-73
2023/02/03 01:36:11;;;;;;;15.52;3.78;;;;;;;;;;4990795;28;20507;-73
2023/02/03 01:38:38;;;;;;;17.95;5.28;;;;;;;;;;4990869;28;20110;-73
2023/02/03 01:41:05;;;;;;;12.68;4.25;;;;;;;;;;4991401;28;20050;-74
2023/02/03 01:43:36;;;;;;;13.85;4.07;;;;;;;;;;4991374;28;20022;-74
2023/02/03 01:46:04;;;;;;;8.45;3.08;;;;;;;;;;4990179;28;20019;-73
2023/02/03 01:48:32;;;;;;;10.98;4.00;;;;;;;;;;4989292;28;20114;-73
2023/02/03 01:51:00;;;;;;;9.38;3.20;;;;;;;;;;4991329;28;20034;-73
2023/02/03 01:53:26;;;;;;;14.02;3.33;;;;;;;;;;4990077;28;20496;-74
2023/02/03 01:55:52;;;;;;;14.18;3.42;;;;;;;;;;4991430;28;20050;-74
2023/02/03 01:58:20;;;;;;;11.88;3.97;;;;;;;;;;4989349;28;20109;-74
2023/02/03 02:00:47;;;;;;;9.70;3.38;;;;;;;;;;4989997;28;20381;-74
2023/02/03 02:03:14;;;;;;;11.93;3.50;;;;;;;;;;4989974;28;20642;-74
2023/02/03 02:05:47;;;;;;;14.30;4.20;;;;;;;;;;4991129;28;20054;-74
2023/02/03 02:08:16;;;;;;;12.65;3.05;;;;;;;;;;4990719;28;20385;-73
2023/02/03 02:10:43;;;;;;;16.77;3.90;;;;;;;;;;4991513;28;20034;-73
2023/02/03 02:13:09;;;;;;;10.98;3.50;;;;;;;;;;4990860;28;20526;-73
2023/02/03 02:15:56;;;;;;;9.80;3.42;;;;;;;;;;4991072;28;20378;-74
2023/02/03 02:18:36;;;;;;;14.85;4.38;;;;;;;;;;4991432;28;20026;-73
2023/02/03 02:21:08;;;;;;;14.15;5.20;;;;;;;;;;4992380;28;20031;-74
2023/02/03 02:23:40;;;;;;;11.70;4.50;;;;;;;;;;4990664;28;20122;-73
2023/02/03 02:26:25;;;;;;;15.70;4.57;;;;;;;;;;4991764;28;20023;-76
2023/02/03 02:28:54;;;;;;;12.90;4.00;;;;;;;;;;4990765;28;20105;-75
2023/02/03 02:31:39;;;;;;;12.25;4.57;;;;;;;;;;4991552;28;20057;-73
2023/02/03 02:34:13;;;;;;;15.50;3.75;;;;;;;;;;4991189;28;20122;-73
2023/02/03 02:36:48;;;;;;;6.97;3.75;;;;;;;;;;4989771;28;20177;-73
2023/02/03 02:39:14;;;;;;;8.95;4.43;;;;;;;;;;4990530;28;20034;-73
2023/02/03 02:41:46;;;;;;;7.00;3.70;;;;;;;;;;4990082;28;20559;-73
2023/02/03 02:44:22;;;;;;;11.85;4.47;;;;;;;;;;4991293;28;20099;-72
2023/02/03 02:46:51;;;;;;;6.50;3.25;;;;;;;;;;4991470;28;20519;-73
2023/02/03 02:49:23;;;;;;;14.02;4.32;;;;;;;;;;4992635;28;20084;-74
2023/02/03 02:51:50;;;;;;;8.90;4.05;;;;;;;;;;4994701;28;20360;-74
2023/02/03 02:54:18;;;;;;;9.15;4.07;;;;;;;;;;4994750;28;20018;-74
2023/02/03 02:56:46;;;;;;;13.38;3.80;;;;;;;;;;4994627;28;20030;-74
2023/02/03 02:59:13;;;;;;;11.77;5.05;;;;;;;;;;4993305;28;20023;-73
2023/02/03 03:01:40;;;;;;;9.02;4.57;;;;;;;;;;4994628;28;20477;-74
2023/02/03 03:04:07;;;;;;;14.90;5.07;;;;;;;;;;4993013;28;20027;-73
2023/02/03 03:06:53;;;;;;;8.82;5.03;;;;;;;;;;4994542;28;20039;-73
2023/02/03 03:09:25;;;;;;;8.75;5.43;;;;;;;;;;4993850;28;20053;-71
2023/02/03 03:11:54;;;;;;;10.57;5.00;;;;;;;;;;4994352;28;20030;-72
2023/02/03 03:14:23;;;;;;;8.52;4.70;;;;;;;;;;4994417;28;20106;-72
2023/02/03 03:16:54;;;;;;;7.55;5.22;;;;;;;;;;4994678;28;20408;-72
2023/02/03 03:19:22;;;;;;;10.25;5.05;;;;;;;;;;4993624;28;20090;-73
2023/02/03 03:21:56;;;;;;;9.25;4.95;;;;;;;;;;4994543;28;20365;-72
2023/02/03 03:24:34;;;;;;;12.43;6.10;;;;;;;;;;4994244;28;20018;-73
2023/02/03 03:27:23;;;;;;;7.80;5.35;;;;;;;;;;4994007;28;20102;-70
2023/02/03 03:29:52;;;;;;;10.85;6.53;;;;;;;;;;4994619;28;20476;-74
2023/02/03 03:32:19;;;;;;;8.80;5.60;;;;;;;;;;4987750;28;20026;-72
2023/02/03 03:34:45;;;;;;;10.05;6.30;;;;;;;;;;4983720;28;20476;-74
2023/02/03 03:37:14;;;;;;;7.63;5.78;;;;;;;;;;4991541;28;20057;-75
2023/02/03 03:39:40;;;;;;;8.85;5.85;;;;;;;;;;4991898;28;20100;-74
2023/02/03 03:42:06;;;;;;;9.73;6.15;;;;;;;;;;4991939;28;20469;-74
2023/02/03 03:44:36;;;;;;;10.05;6.43;;;;;;;;;;4993443;28;20023;-74
2023/02/03 03:47:21;;;;;;;9.90;7.07;;;;;;;;;;4993188;28;20045;-74
2023/02/03 03:49:47;;;;;;;12.30;7.95;;;;;;;;;;4998457;28;20033;-73
2023/02/03 03:52:16;;;;;;;10.95;6.65;;;;;;;;;;5002102;28;20033;-74
2023/02/03 03:54:43;;;;;;;12.15;7.72;;;;;;;;;;5003126;28;20049;-73
2023/02/03 03:57:14;;;;;;;12.52;7.53;;;;;;;;;;4995440;28;20031;-73
2023/02/03 03:59:41;;;;;;;10.70;8.18;;;;;;;;;;4991301;28;20026;-73
2023/02/03 04:02:07;;;;;;;13.02;8.43;;;;;;;;;;4991823;28;20560;-73
2023/02/03 04:04:35;;;;;;;11.15;8.25;;;;;;;;;;4993266;28;20022;-74
2023/02/03 04:07:01;;;;;;;14.02;8.27;;;;;;;;;;4992773;28;20453;-70
2023/02/03 04:09:27;;;;;;;12.70;8.80;;;;;;;;;;4992751;28;20105;-73
2023/02/03 04:12:01;;;;;;;12.93;8.68;;;;;;;;;;4991740;28;20029;-73
2023/02/03 04:14:29;;;;;;;10.93;7.57;;;;;;;;;;4993503;28;20015;-73
2023/02/03 04:16:55;;;;;;;12.85;7.75;;;;;;;;;;4992715;28;20026;-71
2023/02/03 04:19:21;;;;;;;10.40;7.07;;;;;;;;;;4992210;28;20114;-72
2023/02/03 04:21:47;;;;;;;9.60;7.22;;;;;;;;;;4992788;28;20097;-74
2023/02/03 04:24:13;;;;;;;8.65;6.25;;;;;;;;;;4992581;28;20864;-71
2023/02/03 04:26:39;;;;;;;16.27;6.75;;;;;;;;;;4992653;28;20065;-72
2023/02/03 04:29:06;;;;;;;9.15;7.07;;;;;;;;;;4991853;28;20053;-73
2023/02/03 04:31:32;;;;;;;8.30;6.57;;;;;;;;;;4992278;28;20030;-73
2023/02/03 04:33:58;;;;;;;8.63;5.97;;;;;;;;;;4992237;28;20030;-72
2023/02/03 04:36:24;;;;;;;8.73;6.80;;;;;;;;;;4992537;28;20026;-72
2023/02/03 04:38:50;;;;;;;9.73;7.05;;;;;;;;;;4991754;28;20078;-72
2023/02/03 04:41:16;;;;;;;9.52;7.20;;;;;;;;;;4992236;28;20031;-73
2023/02/03 04:43:43;;;;;;;8.63;6.70;;;;;;;;;;4992198;28;20516;-73
2023/02/03 04:46:09;;;;;;;12.77;8.20;;;;;;;;;;4992405;28;20077;-74
2023/02/03 04:48:36;;;;;;;9.68;7.70;;;;;;;;;;4992089;28;20026;-75
2023/02/03 04:51:02;;;;;;;12.95;9.10;;;;;;;;;;4992660;28;20033;-73
2023/02/03 04:53:28;;;;;;;11.77;8.57;;;;;;;;;;4991232;28;20022;-73
2023/02/03 04:55:54;;;;;;;10.27;8.73;;;;;;;;;;4992539;28;20392;-73
2023/02/03 04:58:20;;;;;;;11.35;8.90;;;;;;;;;;4991590;28;20503;-73
2023/02/03 05:00:46;;;;;;;12.38;9.23;;;;;;;;;;4991860;28;20036;-74
2023/02/03 05:03:12;;;;;;;15.35;8.82;;;;;;;;;;4992311;28;20026;-73
2023/02/03 05:05:38;;;;;;;12.85;9.00;;;;;;;;;;4992255;28;20026;-73
2023/02/03 05:08:04;;;;;;;12.10;8.30;;;;;;;;;;4991220;28;20026;-73
2023/02/03 05:10:30;;;;;;;12.50;8.40;;;;;;;;;;4992094;28;20045;-73
2023/02/03 05:12:56;;;;;;;11.88;8.85;;;;;;;;;;4992062;28;20030;-74
2023/02/03 05:15:23;;;;;;;15.38;9.55;;;;;;;;;;4991743;28;20088;-74
2023/02/03 05:17:51;;;;;;;12.32;8.77;;;;;;;;;;4991540;28;20034;-74
2023/02/03 05:20:17;;;;;;;11.70;9.50;;;;;;;;;;4991843;28;20031;-74
2023/02/03 05:22:43;;;;;;;14.25;10.13;;;;;;;;;;4991986;28;20023;-72
2023/02/03 05:25:09;;;;;;;13.98;9.95;;;;;;;;;;4991688;28;20085;-73
2023/02/03 05:27:37;;;;;;;14.18;10.18;;;;;;;;;;4990775;28;20134;-73
2023/02/03 05:30:03;;;;;;;13.50;9.57;;;;;;;;;;4991148;28;20053;-73
2023/02/03 05:32:29;;;;;;;15.50;10.07;;;;;;;;;;4991257;28;20433;-73
2023/02/03 05:34:55;;;;;;;13.15;9.80;;;;;;;;;;4990027;28;20056;-72
2023/02/03 05:37:21;;;;;;;15.48;9.27;;;;;;;;;;4990893;28;20034;-72
2023/02/03 05:39:47;;;;;;;13.82;9.85;;;;;;;;;;4991714;28;20027;-74
2023/02/03 05:42:13;;;;;;;16.65;10.35;;;;;;;;;;4991404;28;20573;-73
2023/02/03 05:44:40;;;;;;;15.45;11.50;;;;;;;;;;4991519;28;20029;-74
2023/02/03 05:47:06;;;;;;;17.52;10.82;;;;;;;;;;4991205;28;20023;-72
2023/02/03 05:49:32;;;;;;;14.00;10.57;;;;;;;;;;4991592;28;20037;-74
2023/02/03 05:51:58;;;;;;;14.68;10.70;;;;;;;;;;4991343;28;20026;-75
2023/02/03 05:54:24;;;;;;;17.75;11.85;;;;;;;;;;4991529;28;20097;-73
2023/02/03 05:56:50;;;;;;;14.07;10.40;;;;;;;;;;4991176;28;20027;-73
2023/02/03 05:59:16;;;;;;;17.83;12.02;;;;;;;;;;4989130;28;20057;-73
2023/02/03 06:01:42;;;;;;;13.27;10.40;;;;;;;;;;4991169;28;20030;-71
2023/02/03 06:04:08;;;;;;;13.73;10.05;;;;;;;;;;4991614;28;20021;-71
2023/02/03 06:06:34;;;;;;;14.95;10.02;;;;;;;;;;4991721;28;20046;-73
2023/02/03 06:09:01;;;;;;;12.70;10.05;;;;;;;;;;4990871;28;20073;-74
2023/02/03 06:11:28;;;;;;;13.85;9.70;;;;;;;;;;4991269;28;20034;-73
2023/02/03 06:13:54;;;;;;;15.18;10.65;;;;;;;;;;4991642;28;20401;-73
2023/02/03 06:16:23;;;;;;;13.63;9.77;;;;;;;;;;4989904;28;20385;-74
2023/02/03 06:18:49;;;;;;;13.82;9.95;;;;;;;;;;4990815;28;20026;-73
2023/02/03 06:21:15;;;;;;;13.63;10.20;;;;;;;;;;4991254;28;20087;-73
2023/02/03 06:23:41;;;;;;;12.63;9.98;;;;;;;;;;4995293;28;20029;-73
2023/02/03 06:26:07;;;;;;;11.63;9.18;;;;;;;;;;4994740;28;20019;-73
2023/02/03 06:28:33;;;;;;;12.80;9.18;;;;;;;;;;4992164;28;20473;-73
2023/02/03 06:30:59;;;;;;;11.70;7.90;;;;;;;;;;4987604;28;20062;-73
2023/02/03 06:33:25;;;;;;;14.95;8.70;;;;;;;;;;5005295;22;20046;-73
2023/02/03 06:35:51;;;;;;;12.27;8.50;;;;;;;;;;4994634;28;20032;-73
2023/02/03 06:38:17;;;;;;;10.57;8.20;;;;;;;;;;4993719;28;20101;-72
2023/02/03 06:40:45;;;;;;;9.95;7.55;;;;;;;;;;4994608;28;20404;-73
2023/02/03 06:43:11;;;;;;;9.77;8.07;;;;;;;;;;4993335;28;20023;-73
2023/02/03 06:45:37;;;;;;;11.38;7.88;;;;;;;;;;4977126;28;20438;-73
2023/02/03 06:48:03;;;;;;;13.88;8.90;;;;;;;;;;4974169;28;20019;-74
2023/02/03 06:50:29;;;;;;;13.38;9.55;;;;;;;;;;4975052;28;20052;-71
2023/02/03 06:52:55;;;;;;;14.18;9.65;;;;;;;;;;4973343;28;20022;-74
2023/02/03 06:55:21;;;;;;;13.02;9.38;;;;;;;;;;4973202;28;20086;-73
2023/02/03 06:57:48;;;;;;;12.95;8.48;;;;;;;;;;4971973;28;20449;-72
2023/02/03 07:00:15;;;;;;;10.80;8.45;;;;;;;;;;4971599;28;20118;-74
2023/02/03 07:02:42;;;;;;;15.50;9.40;;;;;;;;;;4972981;28;20027;-74
2023/02/03 07:05:08;;;;;;;12.88;8.35;;;;;;;;;;4971845;28;20102;-73
2023/02/03 07:07:34;;;;;;;11.50;8.50;;;;;;;;;;4972426;28;20030;-74
2023/02/03 07:10:01;;;;;;;13.32;9.02;;;;;;;;;;4973578;28;20393;-74
2023/02/03 07:12:26;;;;;;;12.60;9.23;;;;;;;;;;4975171;28;20106;-71
2023/02/03 07:14:53;;;;;;;12.38;8.15;;;;;;;;;;4984966;28;20134;-73
2023/02/03 07:17:19;;;;;;;12.50;8.57;;;;;;;;;;4995909;28;20044;-73
2023/02/03 07:19:45;;;;;;;11.68;8.00;;;;;;;;;;4987481;28;20114;-73
2023/02/03 07:22:11;;;;;;;10.40;8.48;;;;;;;;;;4984171;28;20022;-71
2023/02/03 07:24:37;;;;;;;11.02;6.85;;;;;;;;;;4980170;28;20022;-71
2023/02/03 07:27:03;;;;;;;11.95;7.38;;;;;;;;;;4990998;28;20370;-69
2023/02/03 07:29:29;;;;;;;8.80;6.78;;;;;;;;;;4974313;28;20113;-74
2023/02/03 07:31:55;;;;;;;8.60;6.60;;;;;;;;;;4981254;28;20133;-73
2023/02/03 07:34:21;;;;;;;11.15;6.68;;;;;;;;;;4973066;28;20046;-73
2023/02/03 07:36:47;;;;;;;8.18;6.22;;;;;;;;;;4974187;28;20035;-74
2023/02/03 07:39:13;;;;;;;8.38;6.38;;;;;;;;;;4977457;28;20027;-74
2023/02/03 07:41:40;;;;;;;11.65;7.20;;;;;;;;;;4973034;28;20507;-73
2023/02/03 07:44:06;;;;;;;9.70;5.93;;;;;;;;;;4985133;28;20397;-74
2023/02/03 07:46:31;;;;;;;10.30;5.78;;;;;;;;;;4974595;28;20669;-72
2023/02/03 07:48:57;;;;;;;10.20;5.50;;;;;;;;;;4973558;28;20026;-73
2023/02/03 07:51:23;;;;;;;8.02;6.20;;;;;;;;;;4974292;28;20031;-72
2023/02/03 07:53:50;;;;;;;6.22;4.97;;;;;;;;;;4992996;28;20439;-74
2023/02/03 07:56:16;;;;;;;10.25;5.63;;;;;;;;;;4993184;28;20027;-74
2023/02/03 07:58:42;;;;;;;6.78;4.88;;;;;;;;;;4992986;28;20053;-74
2023/02/03 08:01:17;;;;;;;7.63;5.05;;;;;;;;;;4992546;28;20507;-73
2023/02/03 08:03:43;;;;;;;8.75;5.90;;;;;;;;;;4992180;28;20045;-73
2023/02/03 08:06:09;;;;;;;10.20;6.50;;;;;;;;;;4991662;28;20026;-73
2023/02/03 08:08:35;;;;;;;9.85;6.50;;;;;;;;;;4991109;28;20022;-74
2023/02/03 08:11:01;;;;;;;17.77;6.43;;;;;;;;;;4993386;28;20042;-74
2023/02/03 08:13:27;;;;;;;7.10;5.07;;;;;;;;;;4991948;28;20038;-73
2023/02/03 08:15:53;;;;;;;8.05;5.10;;;;;;;;;;4981793;28;20037;-73
2023/02/03 08:18:20;;;;;;;7.60;5.07;;;;;;;;;;4971309;28;20030;-73
2023/02/03 08:20:47;;;;;;;9.35;5.22;;;;;;;;;;4972512;28;20019;-72
2023/02/03 08:23:13;;;;;;;7.68;5.00;;;;;;;;;;4970851;28;20030;-72
2023/02/03 08:25:39;;;;;;;8.10;5.35;;;;;;;;;;4974507;28;20473;-73
2023/02/03 08:28:05;;;;;;;5.47;4.75;;;;;;;;;;4972166;28;20029;-74
2023/02/03 08:30:31;;;;;;;9.93;5.45;;;;;;;;;;4972286;28;20034;-73
2023/02/03 08:32:57;;;;;;;6.28;4.30;;;;;;;;;;4981346;28;20412;-73
2023/02/03 08:35:24;;;;;;;7.70;4.97;;;;;;;;;;4980750;28;20098;-72
2023/02/03 08:37:50;;;;;;;7.80;4.70;;;;;;;;;;4972118;28;20030;-73
2023/02/03 08:40:17;;;;;;;9.30;4.97;;;;;;;;;;4984402;28;20504;-73
2023/02/03 08:42:43;;;;;;;5.30;4.70;;;;;;;;;;4989155;28;20128;-73
2023/02/03 08:45:09;;;;;;;6.65;4.35;;;;;;;;;;4992188;28;20426;-73
2023/02/03 08:47:35;;;;;;;5.45;4.40;;;;;;;;;;4991550;28;20481;-72
2023/02/03 08:50:02;;;;;;;6.78;5.05;;;;;;;;;;4990707;28;20026;-72
2023/02/03 08:52:28;;;;;;;8.05;4.45;;;;;;;;;;4992075;28;20103;-73
2023/02/03 08:54:54;;;;;;;6.35;4.53;;;;;;;;;;4992295;28;20034;-71
2023/02/03 08:57:20;;;;;;;8.63;4.65;;;;;;;;;;4991425;28;20030;-75
2023/02/03 08:59:46;;;;;;;7.10;4.80;;;;;;;;;;4991757;28;20028;-73
2023/02/03 09:02:17;;;;;;;7.45;4.65;;;;;;;;;;4991369;28;20019;-73
2023/02/03 09:04:43;;;;;;;6.93;4.25;;;;;;;;;;4991846;28;20025;-74
2023/02/03 09:07:10;;;;;;;7.85;4.20;;;;;;;;;;4989592;28;20038;-73
2023/02/03 09:09:36;;;;;;;6.38;4.00;;;;;;;;;;4991489;28;20027;-73
2023/02/03 09:12:04;;;;;;;6.47;4.20;;;;;;;;;;4991575;28;20025;-73
2023/02/03 09:14:31;;;;;;;7.15;4.45;;;;;;;;;;4991799;28;20476;-73
2023/02/03 09:16:58;;;;;;;9.82;4.60;;;;;;;;;;4992022;28;20030;-72
2023/02/03 09:19:23;;;;;;;5.90;4.53;;;;;;;;;;4991327;28;20037;-73
2023/02/03 09:21:49;;;;;;;6.90;5.15;;;;;;;;;;4991953;28;20026;-74
2023/02/03 09:24:16;;;;;;;9.32;4.90;;;;;;;;;;4991672;28;20049;-74
2023/02/03 09:26:42;;;;;;;5.18;4.22;;;;;;;;;;4991944;28;20389;-73
2023/02/03 09:29:08;;;;;;;7.57;5.28;;;;;;;;;;4990832;28;20033;-73
2023/02/03 09:31:34;;;;;;;8.20;4.53;;;;;;;;;;4986837;28;20019;-73
2023/02/03 09:34:00;;;;;;;7.18;4.72;;;;;;;;;;4977062;28;20453;-73
2023/02/03 09:36:26;;;;;;;8.00;5.55;;;;;;;;;;4978528;28;20022;-73
2023/02/03 09:38:53;;;;;;;8.38;5.15;;;;;;;;;;4973718;28;20027;-74
2023/02/03 09:41:31;;;;;;;9.20;6.32;;;;;;;;;;4970634;28;20569;-73
2023/02/03 09:44:00;;;;;;;10.10;5.28;;;;;;;;;;4956588;28;20497;-73
2023/02/03 09:46:27;;;;;;;10.32;5.82;;;;;;;;;;4972088;28;20101;-73
2023/02/03 09:48:58;;;;;;;10.18;4.95;;;;;;;;;;4971580;28;20038;-73
2023/02/03 09:51:27;;;;;;;8.20;5.60;;;;;;;;;;4983261;28;20022;-73
2023/02/03 09:53:57;;;;;;;10.75;5.28;;;;;;;;;;4971979;28;20022;-73
2023/02/03 09:56:31;;;;;;;7.80;5.28;;;;;;;;;;4971347;28;20382;-74
2023/02/03 09:58:57;;;;;;;8.65;5.75;;;;;;;;;;4970997;28;20370;-72
2023/02/03 10:01:25;;;;;;;9.90;5.53;;;;;;;;;;4971753;28;20027;-73
2023/02/03 10:04:01;;;;;;;11.77;6.63;;;;;;;;;;4971905;28;20107;-73
2023/02/03 10:06:29;;;;;;;11.60;5.95;;;;;;;;;;4972083;28;20011;-73
2023/02/03 10:09:16;;;;;;;10.95;5.85;;;;;;;;;;4974548;28;20126;-74
2023/02/03 10:11:45;;;;;;;7.78;5.20;;;;;;;;;;4951053;28;20082;-73
2023/02/03 10:14:14;;;;;;;12.38;5.70;;;;;;;;;;4971686;28;20082;-73
2023/02/03 10:16:52;;;;;;;10.23;5.50;;;;;;;;;;4970517;28;20103;-74
2023/02/03 10:19:20;;;;;;;8.95;4.97;;;;;;;;;;4970738;28;20042;-75
2023/02/03 10:21:48;;;;;;;8.70;5.50;;;;;;;;;;4971572;28;20041;-74
2023/02/03 10:24:37;;;;;;;16.92;5.57;;;;;;;;;;4971528;28;20027;-75
2023/02/03 10:27:03;;;;;;;9.68;5.05;;;;;;;;;;4965470;28;20038;-71
2023/02/03 10:29:38;;;;;;;10.25;5.35;;;;;;;;;;4971423;28;20023;-74
2023/02/03 10:32:08;;;;;;;14.32;5.80;;;;;;;;;;4978309;28;20024;-74
2023/02/03 10:34:36;;;;;;;9.98;5.18;;;;;;;;;;4970008;28;20442;-74
2023/02/03 10:37:12;;;;;;;8.45;5.10;;;;;;;;;;4970927;28;20067;-74
2023/02/03 10:39:44;;;;;;;9.07;5.72;;;;;;;;;;4970155;28;20122;-73
2023/02/03 10:42:12;;;;;;;9.52;5.00;;;;;;;;;;4973536;28;20027;-74
2023/02/03 10:44:39;;;;;;;8.68;4.97;;;;;;;;;;4971298;28;20023;-73
2023/02/03 10:47:24;;;;;;;10.40;5.53;;;;;;;;;;4970175;28;20023;-73
2023/02/03 10:49:54;;;;;;;8.18;4.93;;;;;;;;;;4970590;28;20482;-74
2023/02/03 10:52:33;;;;;;;10.93;5.13;;;;;;;;;;4971092;28;20574;-75
2023/02/03 10:55:04;;;;;;;7.00;5.05;;;;;;;;;;4968447;28;20343;-74
2023/02/03 10:57:30;;;;;;;6.95;5.13;;;;;;;;;;4968829;28;20019;-74
2023/02/03 11:00:04;;;;;;;6.05;5.20;;;;;;;;;;4969102;28;20027;-73
2023/02/03 11:02:30;;;;;;;6.78;4.65;;;;;;;;;;4970315;28;20302;-74
2023/02/03 11:05:15;;;;;;;10.57;5.25;;;;;;;;;;4969226;28;20154;-74
2023/02/03 11:07:42;;;;;;;9.15;5.05;;;;;;;;;;4967849;28;20027;-73
2023/02/03 11:10:26;;;;;;;9.82;4.70;;;;;;;;;;4973974;28;20026;-74
2023/02/03 11:13:08;;;;;;;7.28;4.00;;;;;;;;;;4972856;28;20023;-74
2023/02/03 11:15:34;;;;;;;7.75;4.38;;;;;;;;;;4973154;28;20485;-75
2023/02/03 11:18:00;;;;;;;5.78;4.18;;;;;;;;;;4975394;28;20106;-75
2023/02/03 11:20:27;;;;;;;6.40;3.92;;;;;;;;;;4975071;28;20031;-73
2023/02/03 11:22:53;;;;;;;7.68;4.30;;;;;;;;;;4972736;28;20019;-74
2023/02/03 11:25:28;;;;;;;10.20;4.00;;;;;;;;;;4974033;28;20019;-74
2023/02/03 11:28:03;;;;;;;8.77;4.97;;;;;;;;;;4972725;28;20023;-75
2023/02/03 11:30:29;;;;;;;7.00;4.72;;;;;;;;;;4973046;28;20030;-75
2023/02/03 11:32:55;;;;;;;5.25;3.95;;;;;;;;;;4972315;28;20622;-74
2023/02/03 11:35:22;;;;;;;7.70;4.72;;;;;;;;;;4973240;28;20023;-72
2023/02/03 11:37:50;;;;;;;7.85;4.78;;;;;;;;;;4971980;28;20046;-75
2023/02/03 11:40:19;;;;;;;7.22;4.45;;;;;;;;;;4971062;28;20153;-75
2023/02/03 11:42:58;;;;;;;12.07;6.10;;;;;;;;;;4974345;28;20027;-74
2023/02/03 11:45:26;;;;;;;8.25;5.25;;;;;;;;;;4974371;28;20094;-74
2023/02/03 11:47:54;;;;;;;7.82;4.60;;;;;;;;;;4973471;28;20047;-74
2023/02/03 11:50:29;;;;;;;5.43;4.22;;;;;;;;;;4974567;28;20019;-75
2023/02/03 11:52:55;;;;;;;7.55;4.38;;;;;;;;;;4973029;28;20051;-74
2023/02/03 11:55:21;;;;;;;5.85;4.13;;;;;;;;;;4974522;28;20105;-71
2023/02/03 11:57:58;;;;;;;7.45;4.07;;;;;;;;;;4973391;28;20033;-74
2023/02/03 12:00:34;;;;;;;6.10;4.22;;;;;;;;;;4972439;28;20526;-75
2023/02/03 12:03:06;;;;;;;7.80;4.10;;;;;;;;;;4971852;28;20105;-74
2023/02/03 12:05:32;;;;;;;3.80;2.97;;;;;;;;;;4973931;28;20023;-73
2023/02/03 12:08:17;;;;;;;4.50;3.35;;;;;;;;;;4973301;28;20320;-74
2023/02/03 12:10:49;;;;;;;6.22;2.90;;;;;;;;;;4974352;28;20061;-75
2023/02/03 12:13:21;;;;;;;3.85;3.03;;;;;;;;;;4974166;28;20161;-74
2023/02/03 12:16:05;;;;;;;7.03;3.50;;;;;;;;;;4972978;28;20030;-75
2023/02/03 12:18:40;;;;;;;4.68;2.78;;;;;;;;;;4973335;28;20079;-75
2023/02/03 12:21:25;;;;;;;6.68;3.28;;;;;;;;;;4975445;28;20081;-75
2023/02/03 12:23:51;;;;;;;6.30;2.60;;;;;;;;;;4975903;28;20030;-75
2023/02/03 12:26:20;;;;;;;2.88;2.63;;;;;;;;;;4974206;28;20046;-75
2023/02/03 12:28:50;;;;;;;3.42;2.58;;;;;;;;;;4973429;28;20055;-73
2023/02/03 12:31:29;;;;;;;4.68;2.97;;;;;;;;;;4972841;28;20378;-75
2023/02/03 12:34:08;;;;;;;2.72;2.47;;;;;;;;;;4992026;22;20043;-74
2023/02/03 12:36:43;;;;;;;2.00;1.75;;;;;;;;;;4993154;28;20048;-73
2023/02/03 12:39:19;;;;;;;2.83;2.13;;;;;;;;;;4991208;28;20057;-73
2023/02/03 12:41:51;;;;;;;2.25;1.80;;;;;;;;;;4991905;28;20058;-73
2023/02/03 12:44:20;;;;;;;3.28;2.13;;;;;;;;;;4992937;28;20550;-74
2023/02/03 12:47:00;;;;;;;5.45;2.20;;;;;;;;;;4992812;28;20141;-75
2023/02/03 12:49:36;;;;;;;5.40;2.35;;;;;;;;;;4992738;28;20037;-74
2023/02/03 12:52:02;;;;;;;2.65;1.92;;;;;;;;;;4993046;28;20026;-74
2023/02/03 12:54:44;;;;;;;3.80;2.13;;;;;;;;;;4993001;28;20022;-73
2023/02/03 12:57:15;;;;;;;3.47;2.40;;;;;;;;;;4992229;28;20389;-74
2023/02/03 12:59:42;;;;;;;5.30;2.13;;;;;;;;;;4993261;28;20045;-73
2023/02/03 13:02:21;;;;;;;5.00;2.83;;;;;;;;;;4992700;28;20106;-74
2023/02/03 13:04:50;;;;;;;3.70;2.60;;;;;;;;;;4992752;28;20516;-73
2023/02/03 13:07:22;;;;;;;2.95;2.53;;;;;;;;;;4992203;28;20018;-73
2023/02/03 13:09:52;;;;;;;6.22;3.15;;;;;;;;;;4992931;28;20081;-74
2023/02/03 13:12:40;;;;;;;6.82;3.60;;;;;;;;;;4993351;28;20027;-74
2023/02/03 13:15:12;;;;;;;11.00;3.67;;;;;;;;;;4993408;28;20428;-73
2023/02/03 13:17:38;;;;;;;4.40;3.22;;;;;;;;;;4991992;28;20053;-73
2023/02/03 13:20:12;;;;;;;9.23;2.72;;;;;;;;;;4990714;28;20382;-72
2023/02/03 13:22:38;;;;;;;17.45;2.80;;;;;;;;;;4992456;28;20030;-74
2023/02/03 13:25:07;;;;;;;15.25;2.67;;;;;;;;;;4992458;28;20064;-73
2023/02/03 13:27:36;;;;;;;11.60;2.50;;;;;;;;;;4991537;28;20157;-73
2023/02/03 13:30:08;;;;;;;10.35;2.45;;;;;;;;;;4992121;28;20026;-73
2023/02/03 13:32:40;;;;;;;12.73;2.20;;;;;;;;;;4989383;28;20031;-73
2023/02/03 13:35:29;;;;;;;11.52;2.80;;;;;;;;;;4989279;28;20142;-72
2023/02/03 13:37:56;;;;;;;11.25;2.50;;;;;;;;;;4990018;28;20038;-73
2023/02/03 13:40:40;;;;;;;17.13;4.82;;;;;;;;;;4992169;28;20489;-74
2023/02/03 13:43:11;;;;;;;15.40;2.90;;;;;;;;;;4989863;28;20493;-72
2023/02/03 13:45:39;;;;;;;15.63;3.03;;;;;;;;;;4991995;28;20022;-72
2023/02/03 13:48:25;;;;;;;12.25;3.42;;;;;;;;;;4991678;28;20076;-73
2023/02/03 13:51:04;;;;;;;16.17;3.20;;;;;;;;;;4998407;28;20065;-73
2023/02/03 13:53:35;;;;;;;23.75;4.13;;;;;;;;;;5000421;28;20030;-73
2023/02/03 13:56:01;;;;;;;;;;;;;;;;;;4999739;28;20105;-72
2023/02/03 13:58:29;;;;;;;17.15;4.05;;;;;;;;;;4992044;28;19941;-73
2023/02/03 14:00:55;;;;;;;17.65;3.83;;;;;;;;;;4991833;28;20033;-70
2023/02/03 14:03:24;;;;;;;20.95;4.22;;;;;;;;;;4991693;28;20094;-73
2023/02/03 14:05:54;;;;;;;19.52;3.28;;;;;;;;;;4991691;28;20026;-73
2023/02/03 14:08:26;;;;;;;15.37;2.90;;;;;;;;;;4990919;28;20031;-74
2023/02/03 14:11:11;;;;;;;20.83;4.05;;;;;;;;;;4991501;28;20113;-71
2023/02/03 14:13:37;;;;;;;24.77;4.90;;;;;;;;;;4991191;28;20472;-73
2023/02/03 14:16:29;;;;;;;16.73;3.40;;;;;;;;;;4990264;28;20028;-72
2023/02/03 14:18:55;;;;;;;18.35;3.55;;;;;;;;;;4989920;28;20118;-73
2023/02/03 14:21:23;;;;;;;17.45;3.75;;;;;;;;;;4991580;28;20045;-72
2023/02/03 14:23:52;;;;;;;26.63;4.20;;;;;;;;;;4991444;28;20025;-73
2023/02/03 14:26:40;;;;;;;17.15;3.45;;;;;;;;;;4991434;28;20451;-73
2023/02/03 14:29:06;;;;;;;17.02;3.22;;;;;;;;;;4990759;28;20142;-73
2023/02/03 14:31:51;;;;;;;22.17;3.70;;;;;;;;;;4991586;28;20113;-73
2023/02/03 14:34:17;;;;;;;16.88;3.35;;;;;;;;;;4991230;28;20551;-73
2023/02/03 14:36:48;;;;;;;18.05;3.47;;;;;;;;;;4991597;28;20030;-74
2023/02/03 14:39:17;;;;;;;10.85;3.17;;;;;;;;;;4990861;28;20033;-73
2023/02/03 14:41:46;;;;;;;20.67;3.17;;;;;;;;;;4991512;28;20050;-74
2023/02/03 14:44:27;;;;;;;18.65;3.45;;;;;;;;;;4993167;28;20030;-74
2023/02/03 14:46:53;;;;;;;18.13;3.97;;;;;;;;;;4994991;28;20027;-74